createdAt,value
2016-05-13T00:00:16.308Z,15.54
2016-05-13T00:01:16.155Z,15.43
2016-05-13T00:02:16.547Z,15.39
2016-05-13T00:03:16.675Z,15.49
2016-05-13T00:04:16.303Z,15.43
2016-05-13T00:05:30.603Z,15.44
2016-05-13T00:06:16.386Z,15.43
2016-05-13T00:07:16.796Z,15.39
2016-05-13T00:08:16.361Z,15.49
2016-05-13T00:09:17.707Z,15.39
2016-05-13T00:10:31.351Z,15.35
2016-05-13T00:11:16.291Z,15.34
2016-05-13T00:12:16.872Z,15.27
2016-05-13T00:13:16.296Z,15.23
2016-05-13T00:14:18.002Z,15.19
2016-05-13T00:15:30.473Z,15.21
2016-05-13T00:16:16.288Z,15.16
2016-05-13T00:17:16.290Z,15.17
2016-05-13T00:18:16.309Z,15.16
2016-05-13T00:19:16.282Z,15.09
2016-05-13T00:20:16.284Z,15.06
2016-05-13T00:21:16.287Z,15.06
2016-05-13T00:22:16.273Z,15.02
2016-05-13T00:23:16.276Z,15.01
2016-05-13T00:24:16.279Z,14.96
2016-05-13T00:25:16.141Z,14.99
2016-05-13T00:26:16.284Z,14.95
2016-05-13T00:27:16.272Z,14.96
2016-05-13T00:28:16.274Z,14.99
2016-05-13T00:29:16.120Z,14.95
2016-05-13T00:30:16.295Z,14.94
2016-05-13T00:31:16.266Z,14.91
2016-05-13T00:32:16.270Z,14.78
2016-05-13T00:33:16.272Z,14.88
2016-05-13T00:34:15.962Z,14.84
2016-05-13T00:35:16.261Z,14.83
2016-05-13T00:36:16.264Z,14.89
2016-05-13T00:37:16.251Z,14.77
2016-05-13T00:38:16.254Z,14.86
2016-05-13T00:39:16.100Z,14.78
2016-05-13T00:40:16.103Z,14.86
2016-05-13T00:41:16.247Z,14.84
2016-05-13T00:42:16.249Z,14.81
2016-05-13T00:43:16.252Z,14.69
2016-05-13T00:44:16.238Z,14.77
2016-05-13T00:45:16.085Z,14.7
2016-05-13T00:46:16.088Z,14.78
2016-05-13T00:47:16.091Z,14.75
2016-05-13T00:48:16.234Z,14.77
2016-05-13T00:49:16.237Z,14.8
2016-05-13T00:50:16.239Z,14.68
2016-05-13T00:51:16.226Z,14.62
2016-05-13T00:52:16.229Z,14.62
2016-05-13T00:53:16.231Z,14.7
2016-05-13T00:54:16.235Z,14.62
2016-05-13T00:55:16.237Z,14.68
2016-05-13T00:56:16.225Z,14.68
2016-05-13T00:57:16.228Z,14.69
2016-05-13T00:58:16.214Z,14.64
2016-05-13T00:59:16.061Z,14.7
2016-05-13T01:00:16.063Z,14.68
2016-05-13T01:01:16.233Z,14.7
2016-05-13T01:02:16.404Z,14.65
2016-05-13T01:03:16.310Z,14.6
2016-05-13T01:04:16.355Z,14.61
2016-05-13T01:05:16.402Z,14.62
2016-05-13T01:06:16.425Z,14.65
2016-05-13T01:07:16.459Z,14.65
2016-05-13T01:08:16.150Z,14.57
2016-05-13T01:09:16.324Z,14.51
2016-05-13T01:10:16.499Z,14.58
2016-05-13T01:11:16.499Z,14.5
2016-05-13T01:12:16.491Z,14.54
2016-05-13T01:13:16.499Z,14.55
2016-05-13T01:14:16.508Z,14.6
2016-05-13T01:15:16.516Z,14.58
2016-05-13T01:16:16.508Z,14.55
2016-05-13T01:17:16.965Z,14.57
2016-05-13T01:18:16.892Z,14.5
2016-05-13T01:19:16.365Z,14.46
2016-05-13T01:20:17.307Z,14.45
2016-05-13T01:21:16.358Z,14.5
2016-05-13T01:22:16.956Z,14.28
2016-05-13T01:23:16.818Z,14.36
2016-05-13T01:24:17.291Z,14.25
2016-05-13T01:25:17.654Z,14.27
2016-05-13T01:26:32.312Z,14.25
2016-05-13T01:27:17.363Z,14.25
2016-05-13T01:28:17.991Z,14.28
2016-05-13T01:29:17.618Z,14.33
2016-05-13T01:30:16.950Z,14.27
2016-05-13T01:31:16.344Z,14.25
2016-05-13T01:32:16.502Z,14.32
2016-05-13T01:33:31.537Z,14.33
2016-05-13T01:34:16.492Z,14.36
2016-05-13T01:35:16.682Z,14.29
2016-05-13T01:36:16.342Z,14.28
2016-05-13T01:37:16.688Z,14.28
2016-05-13T01:38:16.332Z,14.24
2016-05-13T01:39:16.334Z,14.21
2016-05-13T01:40:16.477Z,14.22
2016-05-13T01:41:16.480Z,14.25
2016-05-13T01:42:16.514Z,14.33
2016-05-13T01:43:16.470Z,14.28
2016-05-13T01:44:16.488Z,14.27
2016-05-13T01:45:16.475Z,14.21
2016-05-13T01:46:16.478Z,14.32
2016-05-13T01:47:16.465Z,14.21
2016-05-13T01:48:16.468Z,14.24
2016-05-13T01:49:16.315Z,14.12
2016-05-13T01:50:16.473Z,14.17
2016-05-13T01:51:16.461Z,14.06
2016-05-13T01:52:16.463Z,14.07
2016-05-13T01:53:16.294Z,14.02
2016-05-13T01:54:16.452Z,13.88
2016-05-13T01:55:16.455Z,13.91
2016-05-13T01:56:16.458Z,13.85
2016-05-13T01:57:16.445Z,13.78
2016-05-13T01:58:16.292Z,13.77
2016-05-13T01:59:16.435Z,13.75
2016-05-13T02:00:16.453Z,13.71
2016-05-13T02:01:16.440Z,13.81
2016-05-13T02:02:16.286Z,13.75
2016-05-13T02:03:16.446Z,13.77
2016-05-13T02:04:16.277Z,13.71
2016-05-13T02:05:16.435Z,13.73
2016-05-13T02:06:16.438Z,13.69
2016-05-13T02:07:16.284Z,13.69
2016-05-13T02:08:16.428Z,13.69
2016-05-13T02:09:16.430Z,13.75
2016-05-13T02:10:16.433Z,13.73
2016-05-13T02:11:16.280Z,13.73
2016-05-13T02:12:16.423Z,13.79
2016-05-13T02:13:16.409Z,13.71
2016-05-13T02:14:16.412Z,13.78
2016-05-13T02:15:16.416Z,13.71
2016-05-13T02:16:16.403Z,13.73
2016-05-13T02:17:16.246Z,13.69
2016-05-13T02:18:16.408Z,13.67
2016-05-13T02:19:16.392Z,13.66
2016-05-13T02:20:16.394Z,13.63
2016-05-13T02:21:16.397Z,13.55
2016-05-13T02:22:16.244Z,13.57
2016-05-13T02:23:16.387Z,13.52
2016-05-13T02:24:16.484Z,13.55
2016-05-13T02:25:16.392Z,13.46
2016-05-13T02:26:16.395Z,13.39
2016-05-13T02:27:16.383Z,13.41
2016-05-13T02:28:16.385Z,13.42
2016-05-13T02:29:16.372Z,13.45
2016-05-13T02:30:16.375Z,13.39
2016-05-13T02:31:16.378Z,13.41
2016-05-13T02:32:16.068Z,13.46
2016-05-13T02:33:16.399Z,13.39
2016-05-13T02:34:16.369Z,13.33
2016-05-13T02:35:17.140Z,13.26
2016-05-13T02:36:18.377Z,13.28
2016-05-13T02:37:17.272Z,13.22
2016-05-13T02:38:16.350Z,13.14
2016-05-13T02:39:16.352Z,13.22
2016-05-13T02:40:16.043Z,13.15
2016-05-13T02:41:16.592Z,13.03
2016-05-13T02:42:17.301Z,13.04
2016-05-13T02:43:17.646Z,12.96
2016-05-13T02:44:16.365Z,13.03
2016-05-13T02:45:17.496Z,12.87
2016-05-13T02:46:18.654Z,12.86
2016-05-13T02:47:17.486Z,12.87
2016-05-13T02:48:16.501Z,12.77
2016-05-13T02:49:16.332Z,12.71
2016-05-13T02:50:17.023Z,12.77
2016-05-13T02:51:16.541Z,12.77
2016-05-13T02:52:17.592Z,12.72
2016-05-13T02:53:16.170Z,12.71
2016-05-13T02:54:30.958Z,12.77
2016-05-13T02:55:16.317Z,12.74
2016-05-13T02:56:16.319Z,12.75
2016-05-13T02:57:16.557Z,12.77
2016-05-13T02:58:16.153Z,12.74
2016-05-13T02:59:16.141Z,12.77
2016-05-13T03:00:16.299Z,12.75
2016-05-13T03:01:16.146Z,12.87
2016-05-13T03:02:16.649Z,12.86
2016-05-13T03:03:15.979Z,12.79
2016-05-13T03:04:16.279Z,12.95
2016-05-13T03:05:16.125Z,12.85
2016-05-13T03:06:16.285Z,12.78
2016-05-13T03:07:16.287Z,13.03
2016-05-13T03:08:16.274Z,13
2016-05-13T03:09:16.293Z,12.96
2016-05-13T03:10:16.264Z,13.01
2016-05-13T03:11:16.266Z,12.97
2016-05-13T03:12:16.285Z,13.03
2016-05-13T03:13:16.271Z,13
2016-05-13T03:14:16.259Z,13.11
2016-05-13T03:15:16.262Z,13.07
2016-05-13T03:16:16.264Z,13.14
2016-05-13T03:17:15.954Z,13.12
2016-05-13T03:18:16.254Z,13.14
2016-05-13T03:19:16.240Z,13.25
2016-05-13T03:20:16.243Z,13.19
2016-05-13T03:21:16.245Z,13.25
2016-05-13T03:22:16.248Z,13.15
2016-05-13T03:23:16.237Z,13.25
2016-05-13T03:24:16.083Z,13.25
2016-05-13T03:25:16.226Z,13.28
2016-05-13T03:26:16.228Z,13.26
2016-05-13T03:27:16.231Z,13.23
2016-05-13T03:28:16.078Z,13.22
2016-05-13T03:29:16.064Z,13.23
2016-05-13T03:30:16.208Z,13.26
2016-05-13T03:31:16.227Z,13.3
2016-05-13T03:32:16.213Z,13.3
2016-05-13T03:33:16.497Z,13.44
2016-05-13T03:34:16.203Z,13.32
2016-05-13T03:35:16.206Z,13.36
2016-05-13T03:36:16.209Z,13.36
2016-05-13T03:37:16.196Z,13.38
2016-05-13T03:38:16.042Z,13.36
2016-05-13T03:39:16.044Z,13.33
2016-05-13T03:40:16.188Z,13.33
2016-05-13T03:41:16.049Z,13.3
2016-05-13T03:42:16.194Z,13.28
2016-05-13T03:43:16.180Z,13.3
2016-05-13T03:44:16.027Z,13.29
2016-05-13T03:45:16.186Z,13.38
2016-05-13T03:46:16.204Z,13.32
2016-05-13T03:47:16.176Z,13.3
2016-05-13T03:48:16.179Z,13.39
2016-05-13T03:49:16.165Z,13.39
2016-05-13T03:50:16.184Z,13.44
2016-05-13T03:51:16.187Z,13.38
2016-05-13T03:52:16.158Z,13.48
2016-05-13T03:53:16.161Z,13.59
2016-05-13T03:54:16.179Z,13.55
2016-05-13T03:55:16.167Z,13.73
2016-05-13T03:56:16.153Z,13.71
2016-05-13T03:57:16.156Z,13.84
2016-05-13T03:58:16.158Z,13.89
2016-05-13T03:59:16.145Z,13.87
2016-05-13T04:00:16.148Z,13.97
2016-05-13T04:01:16.197Z,14.06
2016-05-13T04:02:16.639Z,14.2
2016-05-13T04:03:16.641Z,14.27
2016-05-13T04:04:16.347Z,14.52
2016-05-13T04:05:16.099Z,14.64
2016-05-13T04:06:16.399Z,14.78
2016-05-13T04:07:16.135Z,14.81
2016-05-13T04:08:16.139Z,14.81
2016-05-13T04:09:15.985Z,14.86
2016-05-13T04:10:17.035Z,14.91
2016-05-13T04:11:30.321Z,15.14
2016-05-13T04:12:16.680Z,15.19
2016-05-13T04:13:16.136Z,15.27
2016-05-13T04:14:16.139Z,15.38
2016-05-13T04:15:16.126Z,15.41
2016-05-13T04:16:16.223Z,15.6
2016-05-13T04:17:16.146Z,15.83
2016-05-13T04:18:16.024Z,15.92
2016-05-13T04:19:16.137Z,16.11
2016-05-13T04:20:16.140Z,16.11
2016-05-13T04:21:16.143Z,16.08
2016-05-13T04:22:16.129Z,16.2
2016-05-13T04:23:16.132Z,16.3
2016-05-13T04:24:16.134Z,16.28
2016-05-13T04:25:16.137Z,16.3
2016-05-13T04:26:16.139Z,16.39
2016-05-13T04:27:16.128Z,16.56
2016-05-13T04:28:15.973Z,16.7
2016-05-13T04:29:16.133Z,16.79
2016-05-13T04:30:16.136Z,16.94
2016-05-13T04:31:16.138Z,17.01
2016-05-13T04:32:16.141Z,17.04
2016-05-13T04:33:15.971Z,17.12
2016-05-13T04:34:16.130Z,17.38
2016-05-13T04:35:15.992Z,17.54
2016-05-13T04:36:16.152Z,17.62
2016-05-13T04:37:16.138Z,17.81
2016-05-13T04:38:16.157Z,17.89
2016-05-13T04:39:16.160Z,17.84
2016-05-13T04:40:16.163Z,17.9
2016-05-13T04:41:16.165Z,18.03
2016-05-13T04:42:16.011Z,18.26
2016-05-13T04:43:16.170Z,18.29
2016-05-13T04:44:16.173Z,18.3
2016-05-13T04:45:16.159Z,18.3
2016-05-13T04:46:16.007Z,18.32
2016-05-13T04:47:16.400Z,18.44
2016-05-13T04:48:16.184Z,18.33
2016-05-13T04:49:16.186Z,18.48
2016-05-13T04:50:16.189Z,18.8
2016-05-13T04:51:16.206Z,18.91
2016-05-13T04:52:16.194Z,18.91
2016-05-13T04:53:16.198Z,18.87
2016-05-13T04:54:16.981Z,18.99
2016-05-13T04:55:17.108Z,18.98
2016-05-13T04:56:16.205Z,19.07
2016-05-13T04:57:16.223Z,18.95
2016-05-13T04:58:16.070Z,19.08
2016-05-13T04:59:16.448Z,19.31
2016-05-13T05:00:16.231Z,19.36
2016-05-13T05:01:16.234Z,19.31
2016-05-13T05:02:16.252Z,19.31
2016-05-13T05:03:16.239Z,19.37
2016-05-13T05:04:16.883Z,19.4
2016-05-13T05:05:16.651Z,19.5
2016-05-13T05:06:16.264Z,19.83
2016-05-13T05:07:16.953Z,20.1
2016-05-13T05:08:16.503Z,20.26
2016-05-13T05:09:16.505Z,20.35
2016-05-13T05:10:16.289Z,20.57
2016-05-13T05:11:16.166Z,20.79
2016-05-13T05:12:16.295Z,20.69
2016-05-13T05:13:16.297Z,20.62
2016-05-13T05:14:16.316Z,20.64
2016-05-13T05:15:16.335Z,20.55
2016-05-13T05:16:16.321Z,20.32
2016-05-13T05:17:16.496Z,20.16
2016-05-13T05:18:16.326Z,20.1
2016-05-13T05:19:16.345Z,20.02
2016-05-13T05:20:16.285Z,20.11
2016-05-13T05:21:16.351Z,20.14
2016-05-13T05:22:16.212Z,19.98
2016-05-13T05:23:17.324Z,19.95
2016-05-13T05:24:16.373Z,19.95
2016-05-13T05:25:16.221Z,19.95
2016-05-13T05:26:16.395Z,19.87
2016-05-13T05:27:16.398Z,20.06
2016-05-13T05:28:16.400Z,20.13
2016-05-13T05:29:17.465Z,20.24
2016-05-13T05:30:17.467Z,20.17
2016-05-13T05:31:16.283Z,20.23
2016-05-13T05:32:16.381Z,20.51
2016-05-13T05:33:16.445Z,20.54
2016-05-13T05:34:16.854Z,20.74
2016-05-13T05:35:16.310Z,21.06
2016-05-13T05:36:16.469Z,21.16
2016-05-13T05:37:16.472Z,21.21
2016-05-13T05:38:16.333Z,21.17
2016-05-13T05:39:16.492Z,21.32
2016-05-13T05:40:16.511Z,21.19
2016-05-13T05:41:16.498Z,21.42
2016-05-13T05:42:16.516Z,21.46
2016-05-13T05:43:16.519Z,21.4
2016-05-13T05:44:16.537Z,21.44
2016-05-13T05:45:16.540Z,21.35
2016-05-13T05:46:16.542Z,21.28
2016-05-13T05:47:16.545Z,21.38
2016-05-13T05:48:16.564Z,21.35
2016-05-13T05:49:16.410Z,21.14
2016-05-13T05:50:16.585Z,21.31
2016-05-13T05:51:16.587Z,21.61
2016-05-13T05:52:16.606Z,21.71
2016-05-13T05:53:16.609Z,21.8
2016-05-13T05:54:16.611Z,21.98
2016-05-13T05:55:16.473Z,22.07
2016-05-13T05:56:16.631Z,22.03
2016-05-13T05:57:16.651Z,21.79
2016-05-13T05:58:16.653Z,21.84
2016-05-13T05:59:16.703Z,21.68
2016-05-13T06:00:16.674Z,21.54
2016-05-13T06:01:16.692Z,21.52
2016-05-13T06:02:16.679Z,21.61
2016-05-13T06:03:17.072Z,21.67
2016-05-13T06:04:16.544Z,21.69
2016-05-13T06:05:16.578Z,21.46
2016-05-13T06:06:16.581Z,21.53
2016-05-13T06:07:16.739Z,21.62
2016-05-13T06:08:16.742Z,21.92
2016-05-13T06:09:16.761Z,21.96
2016-05-13T06:10:16.780Z,22.1
2016-05-13T06:11:16.625Z,22.09
2016-05-13T06:12:16.799Z,22.31
2016-05-13T06:13:16.802Z,22.36
2016-05-13T06:14:17.961Z,22.51
2016-05-13T06:15:18.386Z,22.67
2016-05-13T06:16:17.826Z,22.9
2016-05-13T06:17:17.048Z,23.02
2016-05-13T06:18:17.254Z,23.2
2016-05-13T06:19:17.179Z,23.46
2016-05-13T06:20:16.713Z,23.55
2016-05-13T06:21:16.902Z,23.83
2016-05-13T06:22:19.687Z,24.1
2016-05-13T06:23:16.768Z,24.32
2016-05-13T06:24:18.082Z,24.68
2016-05-13T06:25:16.929Z,25.06
2016-05-13T06:26:16.947Z,25.4
2016-05-13T06:27:16.965Z,25.23
2016-05-13T06:28:16.968Z,24.76
2016-05-13T06:29:16.971Z,24.4
2016-05-13T06:30:16.833Z,24.13
2016-05-13T06:31:17.007Z,23.93
2016-05-13T06:32:16.853Z,23.97
2016-05-13T06:33:17.013Z,24.06
2016-05-13T06:34:17.031Z,24.13
2016-05-13T06:35:17.033Z,24.1
2016-05-13T06:36:17.052Z,24.09
2016-05-13T06:37:17.070Z,24.02
2016-05-13T06:38:16.932Z,23.9
2016-05-13T06:39:31.266Z,23.84
2016-05-13T06:40:31.783Z,23.97
2016-05-13T06:41:17.502Z,23.8
2016-05-13T06:42:16.958Z,23.6
2016-05-13T06:43:17.119Z,23.57
2016-05-13T06:44:17.745Z,23.55
2016-05-13T06:45:17.138Z,23.36
2016-05-13T06:46:17.126Z,23.25
2016-05-13T06:47:17.191Z,22.91
2016-05-13T06:48:17.178Z,22.88
2016-05-13T06:49:18.196Z,22.85
2016-05-13T06:50:17.402Z,22.91
2016-05-13T06:51:17.326Z,23.07
2016-05-13T06:52:17.548Z,22.91
2016-05-13T06:53:16.926Z,22.75
2016-05-13T06:54:17.100Z,22.43
2016-05-13T06:55:17.384Z,22.36
2016-05-13T06:56:17.278Z,22.21
2016-05-13T06:57:17.124Z,22.15
2016-05-13T06:58:17.299Z,21.98
2016-05-13T06:59:17.301Z,21.9
2016-05-13T07:00:17.319Z,21.99
2016-05-13T07:01:17.323Z,22.05
2016-05-13T07:02:17.263Z,22.1
2016-05-13T07:03:17.343Z,22.03
2016-05-13T07:04:17.346Z,22.07
2016-05-13T07:05:17.364Z,21.96
2016-05-13T07:06:17.367Z,21.65
2016-05-13T07:07:17.386Z,21.67
2016-05-13T07:08:17.388Z,21.56
2016-05-13T07:09:17.391Z,21.42
2016-05-13T07:10:17.268Z,21.06
2016-05-13T07:11:17.428Z,20.8
2016-05-13T07:12:17.446Z,20.61
2016-05-13T07:13:17.276Z,20.36
2016-05-13T07:14:17.139Z,20.38
2016-05-13T07:15:17.454Z,20.52
2016-05-13T07:16:17.472Z,20.54
2016-05-13T07:17:17.319Z,20.43
2016-05-13T07:18:17.477Z,20.54
2016-05-13T07:19:17.323Z,20.7
2016-05-13T07:20:17.593Z,20.8
2016-05-13T07:21:18.345Z,21.03
2016-05-13T07:22:17.504Z,21.1
2016-05-13T07:23:17.522Z,21.14
2016-05-13T07:24:17.525Z,21.12
2016-05-13T07:25:17.527Z,21.29
2016-05-13T07:26:17.545Z,21.56
2016-05-13T07:27:17.565Z,21.8
2016-05-13T07:28:17.567Z,21.9
2016-05-13T07:29:17.570Z,21.94
2016-05-13T07:30:17.416Z,22
2016-05-13T07:31:17.575Z,21.9
2016-05-13T07:33:17.503Z,21.86
2016-05-13T07:34:17.458Z,21.94
2016-05-13T07:35:18.804Z,21.92
2016-05-13T07:36:17.322Z,22.09
2016-05-13T07:37:17.638Z,22.21
2016-05-13T07:38:17.641Z,22.37
2016-05-13T07:39:17.940Z,22.54
2016-05-13T07:40:17.661Z,22.79
2016-05-13T07:42:19.355Z,23.16
2016-05-13T07:43:17.530Z,23.43
2016-05-13T07:44:17.892Z,23.68
2016-05-13T07:45:17.691Z,23.8
2016-05-13T07:46:17.724Z,23.55
2016-05-13T07:47:18.446Z,23.28
2016-05-13T07:48:17.793Z,23.09
2016-05-13T07:49:17.749Z,22.82
2016-05-13T07:50:17.767Z,22.77
2016-05-13T07:51:17.785Z,22.8
2016-05-13T07:52:17.632Z,22.77
2016-05-13T07:53:17.822Z,22.9
2016-05-13T07:54:17.809Z,22.91
2016-05-13T07:55:17.827Z,22.88
2016-05-13T07:56:17.845Z,22.98
2016-05-13T07:57:19.301Z,23.01
2016-05-13T07:58:18.960Z,23.16
2016-05-13T07:59:18.213Z,23.35
2016-05-13T08:00:17.903Z,23.53
2016-05-13T08:01:17.890Z,23.31
2016-05-13T08:02:17.768Z,23.07
2016-05-13T08:03:18.645Z,22.85
2016-05-13T08:04:17.929Z,22.98
2016-05-13T08:05:17.775Z,23.04
2016-05-13T08:06:17.951Z,23.2
2016-05-13T08:07:18.672Z,23.2
2016-05-13T08:08:32.959Z,22.97
2016-05-13T08:09:18.396Z,22.95
2016-05-13T08:10:18.212Z,22.95
2016-05-13T08:11:17.870Z,23.04
2016-05-13T08:12:18.028Z,23.2
2016-05-13T08:13:17.985Z,23.27
2016-05-13T08:14:18.050Z,23.25
2016-05-13T08:15:18.069Z,23.31
2016-05-13T08:16:18.072Z,23.35
2016-05-13T08:17:18.089Z,23.4
2016-05-13T08:18:17.952Z,23.27
2016-05-13T08:19:18.111Z,23.12
2016-05-13T08:20:18.129Z,22.95
2016-05-13T08:21:18.147Z,22.91
2016-05-13T08:22:18.165Z,22.88
2016-05-13T08:23:18.169Z,23
2016-05-13T08:24:18.186Z,23.09
2016-05-13T08:25:18.188Z,23.12
2016-05-13T08:26:18.208Z,23
2016-05-13T08:27:18.226Z,22.75
2016-05-13T08:28:18.088Z,22.54
2016-05-13T08:29:18.246Z,22.6
2016-05-13T08:30:18.249Z,22.57
2016-05-13T08:31:18.268Z,22.55
2016-05-13T08:32:18.270Z,22.61
2016-05-13T08:33:19.007Z,22.8
2016-05-13T08:34:18.307Z,22.72
2016-05-13T08:35:18.325Z,22.7
2016-05-13T08:36:18.328Z,22.61
2016-05-13T08:37:18.346Z,22.42
2016-05-13T08:38:18.349Z,22.21
2016-05-13T08:39:18.368Z,22.2
2016-05-13T08:40:18.401Z,22.12
2016-05-13T08:41:18.232Z,22.09
2016-05-13T08:42:18.406Z,21.94
2016-05-13T08:43:18.409Z,22.17
2016-05-13T08:44:18.428Z,22.25
2016-05-13T08:45:18.446Z,22.18
2016-05-13T08:46:18.292Z,22.2
2016-05-13T08:47:18.467Z,22.03
2016-05-13T08:48:18.314Z,21.88
2016-05-13T08:49:18.472Z,21.64
2016-05-13T08:50:18.491Z,21.49
2016-05-13T08:51:20.821Z,21.21
2016-05-13T08:52:20.355Z,21.16
2016-05-13T08:53:19.296Z,21.03
2016-05-13T08:54:18.533Z,20.85
2016-05-13T08:55:18.535Z,20.69
2016-05-13T08:56:18.538Z,20.72
2016-05-13T08:57:18.572Z,20.74
2016-05-13T08:58:18.590Z,20.59
2016-05-13T08:59:18.577Z,20.69
2016-05-13T09:00:18.533Z,20.73
2016-05-13T09:01:19.896Z,20.64
2016-05-13T09:02:20.195Z,20.66
2016-05-13T09:03:19.651Z,20.64
2016-05-13T09:04:18.778Z,20.57
2016-05-13T09:05:18.968Z,20.38
2016-05-13T09:06:18.862Z,20.26
2016-05-13T09:07:18.817Z,20.23
2016-05-13T09:08:18.633Z,20.2
2016-05-13T09:09:18.636Z,20.2
2016-05-13T09:10:18.639Z,20.17
2016-05-13T09:11:18.641Z,20.2
2016-05-13T09:12:18.644Z,20.1
2016-05-13T09:13:18.647Z,20.14
2016-05-13T09:14:18.650Z,20.21
2016-05-13T09:15:18.667Z,20.26
2016-05-13T09:16:32.844Z,20.21
2016-05-13T09:17:19.469Z,20.18
2016-05-13T09:18:18.675Z,20.11
2016-05-13T09:19:18.663Z,20.11
2016-05-13T09:20:18.681Z,20.14
2016-05-13T09:21:18.683Z,20.23
2016-05-13T09:22:19.077Z,20.21
2016-05-13T09:23:18.533Z,20.2
2016-05-13T09:24:18.691Z,20.21
2016-05-13T09:25:18.694Z,20.32
2016-05-13T09:26:18.697Z,20.32
2016-05-13T09:27:18.544Z,20.29
2016-05-13T09:28:18.546Z,20.23
2016-05-13T09:29:18.549Z,20.29
2016-05-13T09:30:18.707Z,20.23
2016-05-13T09:31:18.570Z,20.32
2016-05-13T09:32:18.416Z,20.43
2016-05-13T09:33:18.576Z,20.58
2016-05-13T09:34:18.718Z,20.62
2016-05-13T09:35:18.721Z,20.76
2016-05-13T09:36:18.693Z,20.7
2016-05-13T09:37:18.586Z,20.87
2016-05-13T09:38:18.729Z,21.01
2016-05-13T09:39:18.747Z,21.07
2016-05-13T09:40:18.751Z,21.13
2016-05-13T09:41:19.159Z,21.19
2016-05-13T09:42:18.756Z,21.17
2016-05-13T09:43:19.523Z,21.21
2016-05-13T09:44:18.605Z,21.21
2016-05-13T09:45:18.764Z,21.24
2016-05-13T09:46:18.766Z,21.34
2016-05-13T09:47:18.925Z,21.35
2016-05-13T09:48:20.491Z,21.4
2016-05-13T09:49:19.180Z,21.37
2016-05-13T09:50:18.777Z,21.38
2016-05-13T09:51:18.624Z,21.47
2016-05-13T09:52:18.797Z,21.43
2016-05-13T09:53:18.629Z,21.49
2016-05-13T09:54:18.647Z,21.56
2016-05-13T09:55:18.649Z,21.59
2016-05-13T09:56:18.652Z,21.64
2016-05-13T09:57:18.811Z,21.8
2016-05-13T09:58:18.813Z,21.9
2016-05-13T09:59:18.833Z,21.84
2016-05-13T10:00:18.819Z,21.92
2016-05-13T10:01:18.682Z,21.94
2016-05-13T10:02:19.340Z,21.83
2016-05-13T10:03:19.124Z,21.88
2016-05-13T10:04:18.674Z,21.92
2016-05-13T10:05:18.848Z,21.82
2016-05-13T10:06:18.851Z,21.88
2016-05-13T10:07:18.698Z,21.9
2016-05-13T10:08:18.875Z,21.9
2016-05-13T10:09:18.827Z,21.79
2016-05-13T10:10:18.966Z,21.9
2016-05-13T10:11:20.512Z,21.99
2016-05-13T10:12:19.057Z,22.05
2016-05-13T10:13:19.419Z,22.12
2016-05-13T10:14:19.140Z,22.17
2016-05-13T10:15:19.424Z,22.18
2016-05-13T10:16:19.160Z,22.14
2016-05-13T10:17:19.022Z,22.1
2016-05-13T10:18:19.192Z,22.07
2016-05-13T10:19:19.840Z,22
2016-05-13T10:20:20.380Z,21.99
2016-05-13T10:21:20.122Z,22.06
2016-05-13T10:22:19.067Z,22
2016-05-13T10:23:20.184Z,21.96
2016-05-13T10:24:19.735Z,22
2016-05-13T10:25:19.193Z,22.02
2016-05-13T10:26:19.245Z,22.05
2016-05-13T10:27:19.250Z,22.12
2016-05-13T10:28:19.268Z,22.09
2016-05-13T10:29:19.272Z,22.09
2016-05-13T10:30:19.291Z,22.09
2016-05-13T10:31:19.138Z,22.15
2016-05-13T10:32:19.548Z,22.22
2016-05-13T10:33:19.161Z,22.28
2016-05-13T10:34:19.304Z,22.39
2016-05-13T10:35:20.354Z,22.51
2016-05-13T10:36:19.295Z,22.43
2016-05-13T10:37:19.658Z,22.52
2016-05-13T10:38:19.316Z,22.52
2016-05-13T10:39:19.866Z,22.49
2016-05-13T10:40:19.322Z,22.51
2016-05-13T10:41:19.325Z,22.55
2016-05-13T10:42:19.327Z,22.49
2016-05-13T10:43:19.330Z,22.45
2016-05-13T10:44:19.130Z,22.52
2016-05-13T10:45:19.241Z,22.43
2016-05-13T10:46:20.291Z,22.51
2016-05-13T10:47:19.371Z,22.49
2016-05-13T10:48:19.218Z,22.37
2016-05-13T10:49:19.221Z,22.36
2016-05-13T10:50:19.365Z,22.45
2016-05-13T10:51:19.368Z,22.51
2016-05-13T10:52:19.386Z,22.64
2016-05-13T10:53:19.388Z,22.6
2016-05-13T10:54:19.390Z,22.64
2016-05-13T10:55:19.393Z,22.68
2016-05-13T10:56:19.396Z,22.79
2016-05-13T10:57:19.398Z,22.9
2016-05-13T10:58:19.402Z,22.88
2016-05-13T10:59:19.420Z,22.86
2016-05-13T11:00:19.422Z,23.05
2016-05-13T11:01:19.425Z,23.23
2016-05-13T11:02:19.725Z,23.19
2016-05-13T11:03:19.321Z,23.35
2016-05-13T11:04:19.448Z,23.39
2016-05-13T11:05:19.451Z,23.4
2016-05-13T11:06:19.454Z,23.36
2016-05-13T11:07:19.300Z,23.43
2016-05-13T11:08:19.459Z,23.42
2016-05-13T11:09:19.462Z,23.47
2016-05-13T11:10:19.481Z,23.57
2016-05-13T11:11:19.483Z,23.6
2016-05-13T11:12:19.486Z,23.48
2016-05-13T11:13:19.489Z,23.53
2016-05-13T11:14:19.491Z,23.5
2016-05-13T11:15:19.494Z,23.63
2016-05-13T11:16:19.512Z,23.75
2016-05-13T11:17:19.374Z,23.69
2016-05-13T11:18:19.252Z,23.68
2016-05-13T11:19:19.380Z,23.51
2016-05-13T11:20:20.038Z,23.53
2016-05-13T11:21:19.557Z,23.6
2016-05-13T11:22:19.544Z,23.51
2016-05-13T11:23:19.407Z,23.58
2016-05-13T11:24:19.565Z,23.61
2016-05-13T11:25:19.568Z,23.54
2016-05-13T11:26:19.571Z,23.53
2016-05-13T11:27:23.401Z,23.6
2016-05-13T11:28:20.310Z,23.75
2016-05-13T11:29:19.595Z,23.84
2016-05-13T11:30:20.425Z,23.88
2016-05-13T11:31:20.850Z,24.03
2016-05-13T11:32:20.212Z,24.13
2016-05-13T11:33:19.620Z,24.22
2016-05-13T11:34:19.811Z,24.28
2016-05-13T11:35:19.626Z,24.22
2016-05-13T11:36:19.628Z,24.12
2016-05-13T11:37:20.334Z,24.1
2016-05-13T11:38:20.556Z,23.98
2016-05-13T11:39:20.090Z,23.83
2016-05-13T11:40:19.670Z,23.68
2016-05-13T11:41:20.127Z,23.51
2016-05-13T11:42:20.254Z,23.48
2016-05-13T11:43:20.272Z,23.43
2016-05-13T11:44:19.681Z,23.38
2016-05-13T11:45:19.871Z,23.31
2016-05-13T11:46:19.546Z,23.2
2016-05-13T11:47:19.721Z,23.15
2016-05-13T11:48:19.849Z,23.22
2016-05-13T11:49:19.711Z,23.28
2016-05-13T11:50:19.714Z,23.31
2016-05-13T11:51:19.732Z,23.33
2016-05-13T11:52:19.734Z,23.28
2016-05-13T11:53:19.752Z,23.38
2016-05-13T11:54:19.755Z,23.22
2016-05-13T11:55:35.024Z,23.2
2016-05-13T11:56:19.760Z,23.17
2016-05-13T11:57:20.170Z,23.07
2016-05-13T11:58:19.610Z,23.19
2016-05-13T11:59:19.612Z,23.28
2016-05-13T12:00:19.678Z,23.22
2016-05-13T12:01:19.773Z,23.42
2016-05-13T12:02:20.168Z,23.6
2016-05-13T12:03:33.982Z,23.7
2016-05-13T12:04:20.001Z,23.69
2016-05-13T12:05:34.192Z,23.84
2016-05-13T12:06:34.022Z,23.8
2016-05-13T12:07:20.322Z,23.9
2016-05-13T12:08:19.825Z,24.03
2016-05-13T12:09:19.983Z,24.02
2016-05-13T12:10:19.845Z,24.21
2016-05-13T12:11:19.848Z,24.21
2016-05-13T12:12:19.850Z,24.39
2016-05-13T12:13:19.853Z,24.37
2016-05-13T12:14:19.871Z,24.16
2016-05-13T12:15:19.718Z,24.16
2016-05-13T12:16:19.721Z,24.13
2016-05-13T12:17:19.770Z,24.12
2016-05-13T12:18:20.272Z,24.16
2016-05-13T12:19:19.900Z,24.12
2016-05-13T12:20:19.903Z,24.1
2016-05-13T12:21:19.906Z,24.08
2016-05-13T12:22:19.908Z,24.06
2016-05-13T12:23:19.943Z,23.94
2016-05-13T12:24:19.929Z,24.03
2016-05-13T12:25:19.933Z,24.06
2016-05-13T12:26:19.935Z,24.06
2016-05-13T12:27:19.782Z,23.93
2016-05-13T12:28:19.941Z,23.97
2016-05-13T12:29:19.959Z,23.93
2016-05-13T12:30:19.649Z,24.1
2016-05-13T12:31:19.965Z,24.18
2016-05-13T12:32:20.795Z,24.2
2016-05-13T12:33:19.970Z,24.21
2016-05-13T12:34:19.832Z,24.22
2016-05-13T12:35:19.990Z,24.12
2016-05-13T12:36:20.009Z,24.13
2016-05-13T12:37:20.012Z,24.12
2016-05-13T12:38:19.998Z,24.1
2016-05-13T12:39:19.862Z,24.06
2016-05-13T12:40:19.864Z,23.93
2016-05-13T12:41:20.022Z,23.95
2016-05-13T12:42:19.885Z,23.91
2016-05-13T12:43:20.044Z,24.05
2016-05-13T12:44:20.047Z,24.03
2016-05-13T12:45:19.893Z,23.95
2016-05-13T12:46:19.911Z,24.05
2016-05-13T12:47:21.023Z,24.02
2016-05-13T12:48:22.103Z,24.09
2016-05-13T12:49:20.091Z,24.06
2016-05-13T12:50:20.078Z,24.02
2016-05-13T12:51:20.721Z,23.97
2016-05-13T12:52:19.943Z,23.97
2016-05-13T12:53:20.086Z,23.78
2016-05-13T12:54:20.104Z,23.65
2016-05-13T12:55:20.060Z,23.68
2016-05-13T12:56:21.187Z,23.66
2016-05-13T12:57:20.581Z,23.5
2016-05-13T12:58:20.130Z,23.38